Time;durP1;ratioP1;P1;durP2;ratioP2;P2;SDS_P1;SDS_P2;PMS_P1;PMS_P2;Temp;Humidity;BMP_temperature;BMP_pressure;BME280_temperature;BME280_humidity;BME280_pressure;Samples;Min_cycle;Max_cycle;Signal;HPM_P1;HPM_P2
2022/12/17 13:06:49;;;;;;;0.57;0.20;;;;;;;5.86;100.00;100952.84;4945465;28;20111;-71
2022/12/17 13:09:15;;;;;;;0.88;0.30;;;;;;;5.89;100.00;100955.25;4947711;28;20641;-72
2022/12/17 13:12:02;;;;;;;0.40;0.10;;;;;;;5.90;100.00;100955.16;4947895;28;20035;-71
2022/12/17 13:14:34;;;;;;;0.20;0.10;;;;;;;5.83;100.00;100960.78;4931626;28;20499;-72
2022/12/17 13:17:05;;;;;;;0.30;0.10;;;;;;;5.78;100.00;100960.25;4949029;28;20487;-71
2022/12/17 13:19:42;;;;;;;0.50;0.20;;;;;;;5.90;100.00;100964.66;4947841;28;20039;-70
2022/12/17 13:22:15;;;;;;;0.40;0.15;;;;;;;6.10;100.00;100971.94;4970286;28;20044;-71
2022/12/17 13:24:46;;;;;;;0.50;0.10;;;;;;;6.17;100.00;100982.66;5020671;28;20473;-71
2022/12/17 13:27:32;;;;;;;1.00;0.25;;;;;;;6.20;100.00;100987.63;5026363;28;20403;-70
2022/12/17 13:30:30;;;;;;;;;;;;;;;5.92;100.00;100993.84;5024314;28;20044;-71
2022/12/17 13:33:07;;;;;;;1.67;0.60;;;;;;;5.82;100.00;100996.16;5019975;28;19956;-70
2022/12/17 13:35:53;;;;;;;0.80;0.20;;;;;;;5.70;100.00;101002.13;5023874;28;20038;-71
2022/12/17 13:38:27;;;;;;;0.85;0.20;;;;;;;5.61;100.00;101006.19;5023410;28;20022;-70
2022/12/17 13:41:02;;;;;;;1.27;0.30;;;;;;;5.71;100.00;101015.91;5023872;28;20487;-71
2022/12/17 13:43:31;;;;;;;1.08;0.30;;;;;;;5.70;100.00;101016.81;5020323;28;20095;-71
2022/12/17 13:45:57;;;;;;;0.80;0.30;;;;;;;5.63;100.00;101019.84;5016088;28;20033;-70
2022/12/17 13:48:26;;;;;;;0.80;0.25;;;;;;;5.61;100.00;101029.44;5025260;28;20477;-70
2022/12/17 13:50:58;;;;;;;0.82;0.45;;;;;;;5.60;100.00;101022.63;5034216;28;20033;-69
2022/12/17 13:53:23;;;;;;;0.90;0.40;;;;;;;5.63;100.00;101032.75;5023111;28;20064;-68
2022/12/17 13:55:51;;;;;;;1.13;0.50;;;;;;;5.64;100.00;101033.59;5029044;28;20063;-68
2022/12/17 13:58:27;;;;;;;1.92;0.45;;;;;;;5.66;100.00;101044.66;5028403;28;20061;-70
2022/12/17 14:01:11;;;;;;;1.65;0.52;;;;;;;5.66;100.00;101045.50;5029420;28;20029;-70
2022/12/17 14:03:37;;;;;;;1.40;0.45;;;;;;;5.73;100.00;101050.22;5025185;28;20161;-68
2022/12/17 14:06:07;;;;;;;2.45;0.95;;;;;;;5.85;100.00;101052.03;5017878;28;20033;-68
2022/12/17 14:08:33;;;;;;;2.63;1.02;;;;;;;5.94;100.00;101052.28;5020404;28;20029;-69
2022/12/17 14:13:47;;;;;;;4.22;1.73;;;;;;;5.86;100.00;101064.03;5020211;28;20180;-69
2022/12/17 14:16:17;;;;;;;4.32;1.75;;;;;;;5.79;100.00;101067.94;5016445;28;20104;-68
2022/12/17 14:18:46;;;;;;;3.58;1.25;;;;;;;5.74;100.00;101080.34;5027411;28;20030;-68
2022/12/17 14:21:12;;;;;;;2.33;1.15;;;;;;;5.76;100.00;101083.66;5026710;28;20112;-69
2022/12/17 14:23:40;;;;;;;2.15;0.93;;;;;;;5.71;100.00;101080.53;5028290;28;20083;-69
2022/12/17 14:26:08;;;;;;;1.67;0.68;;;;;;;5.59;100.00;101095.09;5027095;28;20036;-69
2022/12/17 14:28:48;;;;;;;2.08;0.68;;;;;;;5.59;100.00;101101.09;5027070;28;20040;-69
2022/12/17 14:31:17;;;;;;;2.30;1.30;;;;;;;5.59;100.00;101108.00;5029665;28;20396;-69
2022/12/17 14:33:43;;;;;;;2.45;0.90;;;;;;;5.59;100.00;101110.59;5030510;28;20033;-69
2022/12/17 14:36:19;;;;;;;3.22;1.45;;;;;;;5.55;100.00;101119.47;5032933;28;20044;-69
2022/12/17 14:38:59;;;;;;;5.07;1.60;;;;;;;5.43;100.00;101118.47;5025583;28;20418;-69
2022/12/17 14:44:20;;;;;;;3.70;1.77;;;;;;;5.18;100.00;101129.53;5033044;28;20095;-69
2022/12/17 14:46:47;;;;;;;4.78;2.10;;;;;;;5.26;100.00;101129.03;5030959;28;20380;-70
2022/12/17 14:49:20;;;;;;;5.35;2.55;;;;;;;5.27;100.00;101128.09;5028961;28;20064;-68
2022/12/17 14:51:48;;;;;;;4.13;2.40;;;;;;;5.22;100.00;101138.72;5029978;28;20033;-68
2022/12/17 14:54:13;;;;;;;4.00;2.42;;;;;;;5.20;100.00;101140.56;5028391;28;20428;-69
2022/12/17 14:56:43;;;;;;;4.43;2.28;;;;;;;5.10;100.00;101147.22;5029005;28;20099;-69
2022/12/17 14:59:20;;;;;;;4.55;2.25;;;;;;;5.06;100.00;101150.09;5025042;28;20356;-68
2022/12/17 15:01:46;;;;;;;3.72;2.00;;;;;;;5.00;100.00;101149.53;5027962;28;20434;-69
2022/12/17 15:04:14;;;;;;;3.97;2.13;;;;;;;4.92;100.00;101148.31;5030641;28;20037;-70
2022/12/17 15:06:39;;;;;;;3.78;2.40;;;;;;;4.86;100.00;101159.00;5030264;28;20366;-70
2022/12/17 15:09:05;;;;;;;4.15;2.45;;;;;;;4.79;100.00;101158.53;5024153;28;20091;-70
2022/12/17 15:11:30;;;;;;;6.80;2.42;;;;;;;4.71;100.00;101165.94;5026535;28;20048;-70
2022/12/17 15:13:56;;;;;;;6.15;2.70;;;;;;;4.65;100.00;101166.28;5024800;28;20062;-71
2022/12/17 15:16:21;;;;;;;4.80;2.35;;;;;;;4.60;100.00;101166.56;5025150;28;20045;-70
2022/12/17 15:18:46;;;;;;;4.95;2.47;;;;;;;4.56;100.00;101164.25;5024515;28;20037;-70
2022/12/17 15:21:12;;;;;;;6.22;3.33;;;;;;;4.51;100.00;101176.56;5030235;28;20117;-70
2022/12/17 15:23:42;;;;;;;9.18;4.63;;;;;;;4.43;100.00;101186.50;5022540;28;20029;-70
2022/12/17 15:26:08;;;;;;;10.43;4.15;;;;;;;4.38;100.00;101188.50;5026117;28;20040;-69
2022/12/17 15:28:34;;;;;;;8.82;3.42;;;;;;;4.33;100.00;101189.59;5022998;28;20045;-72
2022/12/17 15:31:00;;;;;;;7.30;4.40;;;;;;;4.27;100.00;101197.69;5029464;28;20131;-70
2022/12/17 15:33:25;;;;;;;8.90;3.58;;;;;;;4.24;100.00;101208.22;5027934;28;20179;-71
2022/12/17 15:35:51;;;;;;;8.13;3.83;;;;;;;4.22;100.00;101216.94;5027683;28;20087;-72
2022/12/17 15:38:16;;;;;;;5.05;2.88;;;;;;;4.16;100.00;101219.84;5020123;28;20037;-69
2022/12/17 15:40:42;;;;;;;8.00;3.50;;;;;;;4.11;100.00;101222.69;5036516;28;20029;-70
2022/12/17 15:43:10;;;;;;;4.70;3.15;;;;;;;4.04;100.00;101221.38;5025063;28;20450;-71
2022/12/17 15:45:47;;;;;;;5.95;3.97;;;;;;;3.99;100.00;101224.19;5031261;28;20477;-71
2022/12/17 15:48:15;;;;;;;5.13;4.07;;;;;;;3.98;100.00;101224.28;5019992;28;20041;-71
2022/12/17 15:50:41;;;;;;;6.85;4.50;;;;;;;3.91;100.00;101233.25;5027760;28;20025;-71
2022/12/17 15:53:07;;;;;;;7.88;4.70;;;;;;;3.85;100.00;101239.56;5024819;28;20072;-71
2022/12/17 15:55:33;;;;;;;8.25;4.90;;;;;;;3.85;100.00;101246.47;5029098;28;20041;-71
2022/12/17 15:57:59;;;;;;;8.23;5.45;;;;;;;3.77;100.00;101251.22;5027133;28;20041;-71
2022/12/17 16:00:25;;;;;;;8.05;5.75;;;;;;;3.71;100.00;101252.38;5029715;28;20044;-72
2022/12/17 16:02:50;;;;;;;11.02;7.63;;;;;;;3.68;100.00;101255.13;5029719;28;20048;-72
2022/12/17 16:05:17;;;;;;;9.85;6.45;;;;;;;3.66;100.00;101255.22;5025456;28;20049;-72
2022/12/17 16:07:42;;;;;;;9.60;5.43;;;;;;;3.58;100.00;101254.78;5020266;28;20083;-72
2022/12/17 16:10:11;;;;;;;8.82;5.60;;;;;;;3.51;100.00;101262.91;5021484;28;20029;-71
2022/12/17 16:12:36;;;;;;;8.32;4.85;;;;;;;3.52;100.00;101265.41;5028477;28;20036;-72
2022/12/17 16:15:02;;;;;;;9.25;6.43;;;;;;;3.62;100.00;101266.59;5030417;28;20053;-71
2022/12/17 16:17:28;;;;;;;12.55;9.68;;;;;;;3.66;100.00;101267.25;5024614;28;20036;-71
2022/12/17 16:19:53;;;;;;;22.58;13.20;;;;;;;3.65;100.00;101275.91;5030439;28;20037;-71
2022/12/17 16:22:19;;;;;;;20.65;13.63;;;;;;;3.56;100.00;101287.53;5030485;28;20037;-71
2022/12/17 16:24:44;;;;;;;22.48;12.55;;;;;;;3.54;100.00;101283.34;5022247;28;20382;-71
2022/12/17 16:27:12;;;;;;;19.42;11.73;;;;;;;3.50;100.00;101282.69;5029347;28;20353;-73
2022/12/17 16:29:37;;;;;;;22.52;12.25;;;;;;;3.47;100.00;101284.59;5020332;28;20037;-72
2022/12/17 16:32:03;;;;;;;22.50;12.52;;;;;;;3.44;100.00;101288.16;5030421;28;20461;-72
2022/12/17 16:34:28;;;;;;;19.98;12.02;;;;;;;3.44;100.00;101298.44;5026098;28;20038;-71
2022/12/17 16:36:54;;;;;;;18.30;10.93;;;;;;;3.37;100.00;101297.09;5029994;28;20108;-71
2022/12/17 16:39:19;;;;;;;17.60;10.63;;;;;;;3.33;100.00;101300.75;5025980;28;20428;-71
2022/12/17 16:41:45;;;;;;;15.57;10.57;;;;;;;3.29;100.00;101304.41;5024825;28;20033;-71
2022/12/17 16:44:11;;;;;;;16.20;10.65;;;;;;;3.31;100.00;101303.38;5029335;28;20120;-71
2022/12/17 16:46:39;;;;;;;12.65;9.10;;;;;;;3.28;100.00;101308.72;5025117;28;20033;-71
2022/12/17 16:49:08;;;;;;;15.52;9.98;;;;;;;3.22;100.00;101315.91;5025836;28;20026;-72
2022/12/17 16:51:33;;;;;;;17.65;11.30;;;;;;;3.19;100.00;101319.47;5029932;28;20068;-71
2022/12/17 16:54:03;;;;;;;32.95;15.15;;;;;;;3.12;100.00;101319.88;5025454;28;20057;-71
2022/12/17 16:56:29;;;;;;;34.55;18.73;;;;;;;3.06;100.00;101328.72;5026724;28;20041;-71
2022/12/17 16:58:55;;;;;;;37.10;19.05;;;;;;;3.11;100.00;101334.47;5023028;28;20041;-71
2022/12/17 17:01:23;;;;;;;36.22;16.90;;;;;;;3.12;100.00;101345.63;5023144;28;20143;-71
2022/12/17 17:03:48;;;;;;;43.38;18.85;;;;;;;3.15;100.00;101343.72;5029618;28;20060;-71
2022/12/17 17:06:15;;;;;;;28.67;14.30;;;;;;;3.13;100.00;101355.84;5028700;28;20041;-72
2022/12/17 17:08:41;;;;;;;20.02;11.73;;;;;;;3.14;100.00;101344.63;5020622;28;20460;-71
2022/12/17 17:11:15;;;;;;;28.52;15.07;;;;;;;3.14;100.00;101344.63;5023382;28;20447;-71
2022/12/17 17:13:41;;;;;;;31.98;16.13;;;;;;;3.16;100.00;101362.59;5028285;28;20049;-72
2022/12/17 17:16:08;;;;;;;23.75;13.50;;;;;;;3.21;100.00;101376.06;5022297;28;20033;-70
2022/12/17 17:18:35;;;;;;;35.08;16.95;;;;;;;3.21;100.00;101376.91;5019949;28;20161;-72
2022/12/17 17:21:19;;;;;;;34.10;17.65;;;;;;;3.28;100.00;101382.59;5025006;28;20458;-71
2022/12/17 17:23:45;;;;;;;40.72;20.83;;;;;;;3.25;100.00;101396.44;5026634;28;20121;-72
2022/12/17 17:26:12;;;;;;;34.00;17.58;;;;;;;3.18;100.00;101399.38;5022378;28;20152;-72
2022/12/17 17:28:37;;;;;;;32.22;18.70;;;;;;;3.24;100.00;101402.50;5027256;28;20057;-71
2022/12/17 17:31:06;;;;;;;31.73;20.17;;;;;;;3.30;100.00;101401.38;5023426;28;20022;-71
2022/12/17 17:33:33;;;;;;;32.00;18.77;;;;;;;3.29;100.00;101410.00;5020138;28;20034;-72
2022/12/17 17:36:08;;;;;;;27.17;15.77;;;;;;;3.19;100.00;101411.38;5028269;28;20032;-72
2022/12/17 17:38:35;;;;;;;28.08;16.48;;;;;;;3.18;100.00;101414.84;5018216;28;20090;-72
2022/12/17 17:41:01;;;;;;;33.08;19.42;;;;;;;3.13;100.00;101422.78;5025236;28;20527;-72
2022/12/17 17:43:27;;;;;;;42.45;23.10;;;;;;;3.10;100.00;101434.97;5021284;28;20045;-70
2022/12/17 17:45:54;;;;;;;41.85;23.85;;;;;;;3.11;100.00;101439.22;5024880;28;20025;-70
2022/12/17 17:48:20;;;;;;;42.03;22.15;;;;;;;3.08;100.00;101431.63;5025186;28;20056;-70
2022/12/17 17:51:00;;;;;;;36.70;20.08;;;;;;;2.96;100.00;101441.59;5032898;28;20037;-70
2022/12/17 17:53:26;;;;;;;34.33;20.60;;;;;;;2.94;100.00;101440.84;5025658;28;20026;-70
2022/12/17 17:55:52;;;;;;;50.90;27.77;;;;;;;2.94;100.00;101450.31;5023639;28;20036;-70
2022/12/17 17:58:17;;;;;;;136.55;61.22;;;;;;;2.98;100.00;101444.09;5021961;28;20489;-70
2022/12/17 18:00:43;;;;;;;89.93;42.50;;;;;;;2.96;100.00;101436.44;5041124;28;20037;-70
2022/12/17 18:03:08;;;;;;;47.97;26.90;;;;;;;2.87;100.00;101446.34;5013195;28;20051;-70
2022/12/17 18:05:37;;;;;;;46.28;24.42;;;;;;;2.89;100.00;101444.53;5022425;28;22631;-70
2022/12/17 18:08:03;;;;;;;49.58;27.83;;;;;;;2.89;100.00;101457.41;5024876;28;20072;-70
2022/12/17 18:10:29;;;;;;;49.67;27.08;;;;;;;2.87;100.00;101460.03;5020503;28;20037;-70
2022/12/17 18:15:38;;;;;;;44.05;25.17;;;;;;;2.76;100.00;101466.63;5027848;28;20124;-70
2022/12/17 18:18:04;;;;;;;36.97;22.50;;;;;;;2.71;100.00;101476.28;5019557;28;20033;-72
2022/12/17 18:20:29;;;;;;;34.20;18.77;;;;;;;2.72;100.00;101477.94;5025268;28;20022;-70
2022/12/17 18:22:55;;;;;;;23.75;15.13;;;;;;;2.71;100.00;101482.28;5023221;28;20350;-70
2022/12/17 18:25:20;;;;;;;25.25;16.70;;;;;;;2.70;100.00;101484.91;5025208;28;20033;-70
2022/12/17 18:27:46;;;;;;;24.05;16.67;;;;;;;2.71;100.00;101479.69;5026491;28;20108;-70
2022/12/17 18:30:13;;;;;;;28.25;17.70;;;;;;;2.70;100.00;101490.06;5027313;28;20029;-70
2022/12/17 18:32:38;;;;;;;31.38;19.50;;;;;;;2.74;100.00;101489.84;5021044;28;20025;-70
2022/12/17 18:35:04;;;;;;;31.42;20.10;;;;;;;2.79;100.00;101499.94;5027522;28;20041;-72
2022/12/17 18:37:30;;;;;;;33.28;20.50;;;;;;;2.79;100.00;101498.19;5023460;28;20040;-71
2022/12/17 18:39:55;;;;;;;38.63;24.63;;;;;;;2.81;100.00;101501.53;5021350;28;20057;-71
2022/12/17 18:45:06;;;;;;;18.45;12.30;;;;;;;2.75;100.00;101509.53;5024662;28;20528;-69
2022/12/17 18:47:31;;;;;;;42.70;27.67;;;;;;;2.88;100.00;101508.06;5026258;28;20025;-71
2022/12/17 18:49:56;;;;;;;34.38;22.75;;;;;;;2.93;100.00;101516.41;5024648;28;20033;-71
2022/12/17 18:52:22;;;;;;;33.13;20.98;;;;;;;2.95;100.00;101522.31;5017876;28;20033;-72
2022/12/17 18:54:48;;;;;;;27.10;17.80;;;;;;;2.97;100.00;101535.13;5028787;28;20033;-71
2022/12/17 18:57:13;;;;;;;31.48;19.40;;;;;;;3.00;100.00;101533.25;5024650;28;20034;-72
2022/12/17 18:59:39;;;;;;;28.92;19.58;;;;;;;2.79;100.00;101528.25;5028329;28;20083;-72
2022/12/17 19:02:08;;;;;;;32.17;20.73;;;;;;;2.76;100.00;101542.09;5019275;28;20033;-72
2022/12/17 19:04:34;;;;;;;16.13;10.00;;;;;;;2.75;100.00;101531.84;5016348;28;20042;-72
2022/12/17 19:06:59;;;;;;;21.20;12.63;;;;;;;2.86;100.00;101533.03;5022883;28;20041;-71
2022/12/17 19:09:33;;;;;;;27.00;12.43;;;;;;;2.87;100.00;101545.00;5022799;28;20431;-72
2022/12/17 19:11:58;;;;;;;18.48;10.63;;;;;;;2.86;100.00;101534.75;5022550;28;20037;-72
2022/12/17 19:14:24;;;;;;;16.67;10.70;;;;;;;2.81;100.00;101545.28;5024003;28;20045;-71
2022/12/17 19:16:52;;;;;;;18.05;12.73;;;;;;;2.73;100.00;101544.78;5022132;28;20037;-72
2022/12/17 19:19:18;;;;;;;16.10;10.10;;;;;;;2.56;100.00;101547.28;5022861;28;20022;-71
2022/12/17 19:21:44;;;;;;;18.98;11.90;;;;;;;2.63;100.00;101551.25;5022781;28;20048;-74
2022/12/17 19:24:13;;;;;;;19.50;11.90;;;;;;;2.61;100.00;101553.06;5024853;28;20358;-73
2022/12/17 19:26:39;;;;;;;22.08;13.18;;;;;;;2.57;100.00;101557.50;5022326;28;20029;-73
2022/12/17 19:29:06;;;;;;;18.98;12.32;;;;;;;2.57;100.00;101565.22;5026481;28;20368;-74
2022/12/17 19:31:32;;;;;;;17.27;11.68;;;;;;;2.49;100.00;101563.88;5023081;28;20033;-73
2022/12/17 19:33:59;;;;;;;16.95;11.52;;;;;;;2.39;100.00;101570.31;5022206;28;20078;-73
2022/12/17 19:36:26;;;;;;;19.20;13.32;;;;;;;2.34;100.00;101578.25;5023738;28;20044;-73
2022/12/17 19:38:54;;;;;;;22.33;14.57;;;;;;;2.26;100.00;101578.56;5024768;28;20046;-73
2022/12/17 19:41:20;;;;;;;19.02;11.98;;;;;;;2.26;100.00;101586.28;5023693;28;20044;-73
2022/12/17 19:43:51;;;;;;;19.55;11.88;;;;;;;2.32;100.00;101580.03;5026419;28;20547;-74
2022/12/17 19:46:18;;;;;;;21.67;14.00;;;;;;;2.45;100.00;101590.63;5028113;28;20037;-74
2022/12/17 19:48:45;;;;;;;25.00;15.25;;;;;;;2.37;100.00;101602.97;5027944;28;20112;-74
2022/12/17 19:51:12;;;;;;;24.80;16.13;;;;;;;2.38;100.00;101604.63;5025802;28;20598;-75
2022/12/17 19:53:39;;;;;;;27.92;15.85;;;;;;;2.33;100.00;101610.84;5017913;28;20484;-75
2022/12/17 19:56:09;;;;;;;30.02;17.15;;;;;;;2.29;100.00;101613.59;5029631;28;20112;-74
2022/12/17 19:58:35;;;;;;;29.73;18.30;;;;;;;2.27;100.00;101605.94;5030218;28;20361;-73
2022/12/17 20:01:14;;;;;;;30.55;17.77;;;;;;;2.29;100.00;101608.47;5025551;28;20044;-74
2022/12/17 20:03:41;;;;;;;27.95;16.88;;;;;;;2.35;100.00;101617.66;5027231;28;20029;-73
2022/12/17 20:06:08;;;;;;;25.45;16.50;;;;;;;2.49;100.00;101615.31;5025229;28;20075;-73
2022/12/17 20:08:34;;;;;;;26.05;16.15;;;;;;;2.59;100.00;101624.31;5022138;28;20473;-74
2022/12/17 20:11:02;;;;;;;26.60;14.75;;;;;;;2.57;100.00;101626.13;5026484;28;20029;-73
2022/12/17 20:13:28;;;;;;;27.15;16.27;;;;;;;2.59;100.00;101627.72;5026719;28;20114;-74
2022/12/17 20:16:01;;;;;;;25.08;15.65;;;;;;;2.56;100.00;101630.44;5028881;28;20480;-73
2022/12/17 20:18:27;;;;;;;24.02;15.18;;;;;;;2.53;100.00;101643.41;5030374;28;20112;-74
2022/12/17 20:21:04;;;;;;;25.42;14.45;;;;;;;2.54;100.00;101646.84;5043388;28;20473;-73
2022/12/17 20:23:29;;;;;;;24.23;14.25;;;;;;;2.47;100.00;101648.81;5027279;28;20042;-73
2022/12/17 20:26:06;;;;;;;25.80;14.68;;;;;;;2.54;100.00;101649.41;5028741;28;20116;-75
2022/12/17 20:28:32;;;;;;;25.38;16.50;;;;;;;2.56;100.00;101647.59;5023767;28;20045;-73
2022/12/17 20:30:59;;;;;;;28.48;15.65;;;;;;;2.57;100.00;101665.56;5027964;28;20033;-73
2022/12/17 20:33:25;;;;;;;22.05;13.68;;;;;;;2.35;100.00;101666.53;5020948;28;20385;-74
2022/12/17 20:35:50;;;;;;;9.45;5.93;;;;;;;2.35;100.00;101653.66;5023264;28;20492;-74
2022/12/17 20:38:16;;;;;;;10.68;4.93;;;;;;;2.56;100.00;101653.59;5023650;28;20061;-74
2022/12/17 20:40:41;;;;;;;16.17;9.02;;;;;;;2.61;100.00;101658.53;5024530;28;20037;-74
2022/12/17 20:43:07;;;;;;;21.48;11.48;;;;;;;2.64;100.00;101661.00;5022988;28;20509;-73
2022/12/17 20:45:33;;;;;;;24.95;16.13;;;;;;;2.56;100.00;101668.19;5023879;28;20037;-73
2022/12/17 20:47:59;;;;;;;24.35;14.35;;;;;;;2.55;100.00;101666.50;5022651;28;20040;-73
2022/12/17 20:50:25;;;;;;;22.58;13.00;;;;;;;2.52;100.00;101664.06;5028091;28;20025;-72
2022/12/17 20:52:50;;;;;;;17.10;10.13;;;;;;;2.39;100.00;101665.47;5024159;28;20457;-73
2022/12/17 20:55:16;;;;;;;13.95;9.60;;;;;;;2.46;100.00;101667.72;5028133;28;20029;-73
2022/12/17 20:57:42;;;;;;;17.13;10.27;;;;;;;2.41;100.00;101672.22;5029247;28;20036;-72
2022/12/17 21:00:09;;;;;;;13.43;9.55;;;;;;;2.41;100.00;101671.38;5027521;28;20120;-72
2022/12/17 21:02:35;;;;;;;23.48;13.02;;;;;;;2.34;100.00;101683.69;5019989;28;20164;-73
2022/12/17 21:05:01;;;;;;;14.25;10.38;;;;;;;2.28;100.00;101677.06;5027753;28;20052;-74
2022/12/17 21:07:26;;;;;;;15.50;7.90;;;;;;;2.44;100.00;101684.13;5028427;28;20122;-73
2022/12/17 21:09:52;;;;;;;12.77;7.68;;;;;;;2.54;100.00;101695.72;5028612;28;20584;-74
2022/12/17 21:12:18;;;;;;;9.90;5.85;;;;;;;2.53;100.00;101696.63;5023965;28;20025;-74
2022/12/17 21:14:43;;;;;;;8.50;5.13;;;;;;;2.55;100.00;101702.53;5022130;28;20046;-73
2022/12/17 21:17:09;;;;;;;9.02;6.00;;;;;;;2.50;100.00;101700.16;5025526;28;20048;-73
2022/12/17 21:19:34;;;;;;;15.30;7.45;;;;;;;2.49;100.00;101695.06;5028978;28;20102;-72
2022/12/17 21:22:00;;;;;;;10.20;5.40;;;;;;;2.57;100.00;101699.00;5025323;28;20112;-74
2022/12/17 21:24:25;;;;;;;7.13;4.45;;;;;;;2.66;100.00;101700.34;5021624;28;20034;-73
2022/12/17 21:26:50;;;;;;;9.02;5.63;;;;;;;2.73;100.00;101704.34;5024507;28;20033;-73
2022/12/17 21:29:17;;;;;;;7.15;3.67;;;;;;;3.00;100.00;101697.19;5025692;28;20037;-73
2022/12/17 21:31:48;;;;;;;3.10;1.42;;;;;;;3.42;100.00;101689.28;5024949;28;20748;-73
2022/12/17 21:34:22;;;;;;;4.43;2.53;;;;;;;3.64;100.00;101696.91;5024749;28;20029;-74
2022/12/17 21:36:49;;;;;;;15.95;6.50;;;;;;;3.48;100.00;101707.06;5024253;28;20026;-73
2022/12/17 21:39:15;;;;;;;11.43;6.13;;;;;;;3.32;100.00;101706.06;5028662;28;20040;-72
2022/12/17 21:43:00;;;;;;;7.43;3.20;;;;;;;3.31;100.00;101714.69;5022456;28;20041;-72
2022/12/17 21:44:28;;;;;;;12.00;5.53;;;;;;;3.33;100.00;101718.03;5027608;28;20401;-71
2022/12/17 21:46:53;;;;;;;18.30;7.70;;;;;;;3.14;100.00;101730.91;5026785;28;20029;-72
2022/12/17 21:49:19;;;;;;;22.13;10.82;;;;;;;2.89;100.00;101733.69;5022216;28;20037;-73
2022/12/17 21:51:44;;;;;;;24.35;12.48;;;;;;;2.73;100.00;101724.94;5024846;28;20045;-72
2022/12/17 21:54:10;;;;;;;25.83;12.23;;;;;;;2.65;100.00;101732.97;5029945;28;20052;-73
2022/12/17 21:56:35;;;;;;;26.80;12.55;;;;;;;2.61;100.00;101733.16;5022737;28;20484;-72
2022/12/17 21:59:01;;;;;;;23.27;12.57;;;;;;;2.54;100.00;101742.88;5026707;28;20385;-72
2022/12/17 22:01:30;;;;;;;22.92;11.55;;;;;;;2.41;100.00;101735.69;5022839;28;20048;-73
2022/12/17 22:03:57;;;;;;;17.23;10.18;;;;;;;2.57;100.00;101741.91;5028261;28;20385;-72
2022/12/17 22:06:24;;;;;;;15.80;8.82;;;;;;;2.59;100.00;101740.09;5017823;28;20028;-73
2022/12/17 22:08:49;;;;;;;30.42;13.55;;;;;;;2.59;100.00;101742.69;5027583;28;20033;-72
2022/12/17 22:11:18;;;;;;;25.92;13.18;;;;;;;2.45;100.00;101744.97;5026708;28;20041;-73
2022/12/17 22:16:30;;;;;;;21.98;12.20;;;;;;;2.16;100.00;101739.25;5025354;28;20043;-72
2022/12/17 22:18:57;;;;;;;24.13;11.63;;;;;;;2.12;100.00;101736.84;5024708;28;20032;-72
2022/12/17 22:21:23;;;;;;;22.85;10.73;;;;;;;2.12;100.00;101739.44;5023319;28;20029;-72
2022/12/17 22:23:49;;;;;;;24.55;12.77;;;;;;;2.09;100.00;101749.84;5021667;28;20026;-72
2022/12/17 22:26:16;;;;;;;25.25;13.07;;;;;;;1.94;100.00;101756.38;5024996;28;20397;-72
2022/12/17 22:28:47;;;;;;;21.85;10.15;;;;;;;1.83;100.00;101745.69;5028028;28;20469;-72
2022/12/17 22:33:58;;;;;;;18.25;11.30;;;;;;;1.67;100.00;101753.97;5018252;28;20045;-73
2022/12/17 22:36:24;;;;;;;17.95;10.55;;;;;;;1.56;100.00;101763.78;5022753;28;20037;-72
2022/12/17 22:38:49;;;;;;;21.73;12.40;;;;;;;1.38;100.00;101761.91;5017842;28;20450;-72
2022/12/17 22:44:00;;;;;;;23.15;11.80;;;;;;;1.44;100.00;101764.22;5031159;28;20097;-72
2022/12/17 22:46:26;;;;;;;20.42;11.75;;;;;;;1.46;100.00;101772.72;5017865;28;20033;-72
2022/12/17 22:48:52;;;;;;;20.90;10.48;;;;;;;1.46;100.00;101775.28;5023992;28;20389;-72
2022/12/17 22:51:17;;;;;;;18.23;10.32;;;;;;;1.39;100.00;101778.16;5022082;28;20034;-72
2022/12/17 22:53:43;;;;;;;19.65;10.88;;;;;;;1.29;100.00;101775.06;5030082;28;20507;-72
2022/12/17 22:56:08;;;;;;;22.48;11.63;;;;;;;1.03;100.00;101783.63;5032512;28;20126;-72
2022/12/17 22:58:37;;;;;;;19.50;10.52;;;;;;;1.06;100.00;101787.84;5032880;28;20041;-72
2022/12/17 23:01:04;;;;;;;21.00;10.80;;;;;;;1.09;100.00;101782.59;5031081;28;20021;-72
2022/12/17 23:03:30;;;;;;;18.02;9.82;;;;;;;1.06;100.00;101783.53;5025620;28;20486;-72
2022/12/17 23:06:16;;;;;;;18.65;9.75;;;;;;;1.04;100.00;101792.19;5032477;28;20068;-72
2022/12/17 23:08:43;;;;;;;20.38;10.68;;;;;;;0.99;100.00;101795.72;5027932;28;20037;-73
2022/12/17 23:11:15;;;;;;;15.77;8.68;;;;;;;1.00;100.00;101794.84;5030938;28;20037;-72
2022/12/17 23:13:41;;;;;;;14.65;7.63;;;;;;;0.95;100.00;101796.72;5028477;28;20171;-72
2022/12/17 23:16:09;;;;;;;14.30;8.13;;;;;;;0.98;100.00;101799.19;5031695;28;20088;-73
2022/12/17 23:18:34;;;;;;;16.95;8.05;;;;;;;1.00;100.00;101797.41;5029911;28;20037;-72
2022/12/17 23:21:11;;;;;;;16.17;8.50;;;;;;;0.93;100.00;101795.97;5027660;28;20367;-71
2022/12/17 23:23:37;;;;;;;15.77;8.32;;;;;;;0.96;100.00;101802.69;5026647;28;20600;-72
2022/12/17 23:26:11;;;;;;;15.15;9.32;;;;;;;1.35;100.00;101800.53;5032836;28;20167;-72
2022/12/17 23:28:38;;;;;;;15.75;8.23;;;;;;;1.29;100.00;101803.31;5025435;28;20066;-73
2022/12/17 23:31:12;;;;;;;8.13;4.28;;;;;;;1.34;100.00;101811.69;5031185;28;20119;-72
2022/12/17 23:33:38;;;;;;;5.88;3.53;;;;;;;2.18;100.00;101806.88;5030226;28;20021;-72
2022/12/17 23:36:25;;;;;;;4.03;2.67;;;;;;;2.69;100.00;101808.31;5032384;28;20037;-72
2022/12/17 23:38:53;;;;;;;5.95;2.70;;;;;;;2.81;100.00;101812.97;5024712;28;20041;-72
2022/12/17 23:41:22;;;;;;;4.03;2.50;;;;;;;2.90;100.00;101811.75;5029962;28;20036;-73
2022/12/17 23:43:48;;;;;;;4.13;2.15;;;;;;;3.14;98.94;101804.75;5024796;28;20030;-72
2022/12/17 23:46:15;;;;;;;4.10;2.15;;;;;;;3.37;94.94;101801.19;5030449;28;20025;-72
2022/12/17 23:48:42;;;;;;;3.88;1.95;;;;;;;3.38;97.63;101803.69;5028386;28;20033;-72
2022/12/17 23:51:09;;;;;;;7.88;3.47;;;;;;;3.18;99.18;101807.13;5025171;28;20113;-72
2022/12/17 23:53:36;;;;;;;5.05;3.17;;;;;;;3.26;94.75;101815.38;5028642;28;20053;-72
2022/12/17 23:56:05;;;;;;;7.28;3.42;;;;;;;3.15;97.81;101804.69;5029170;28;20026;-72
2022/12/17 23:58:31;;;;;;;8.30;3.38;;;;;;;2.97;100.00;101816.56;5028748;28;20040;-72
